Time;durP1;ratioP1;P1;durP2;ratioP2;P2;SDS_P1;SDS_P2;PMS_P1;PMS_P2;Temp;Humidity;BMP_temperature;BMP_pressure;BME280_temperature;BME280_humidity;BME280_pressure;Samples;Min_cycle;Max_cycle;Signal;HPM_P1;HPM_P2
2022/12/29 00:01:31;;;;;;;10.43;8.57;;;4.70;72.50;;;;;;5105691;28;20024;-60
2022/12/29 00:03:58;;;;;;;12.38;8.18;;;4.70;72.80;;;;;;5106849;28;20443;-61
2022/12/29 00:06:24;;;;;;;10.68;8.00;;;4.70;73.00;;;;;;5104015;28;20351;-57
2022/12/29 00:08:50;;;;;;;10.00;7.85;;;4.60;73.00;;;;;;5109759;28;20079;-57
2022/12/29 00:11:19;;;;;;;10.57;8.35;;;4.70;73.30;;;;;;5101137;28;20059;-57
2022/12/29 00:16:30;;;;;;;11.77;9.38;;;4.80;73.00;;;;;;5107244;28;20054;-60
2022/12/29 00:18:56;;;;;;;14.38;10.75;;;4.80;73.10;;;;;;5109060;28;20515;-61
2022/12/29 00:35:29;;;;;;;13.30;10.10;;;5.00;72.80;;;;;;5099069;28;20051;-54
2022/12/29 00:46:11;;;;;;;10.13;8.32;;;4.90;73.30;;;;;;5105441;28;20031;-66
2022/12/29 00:51:21;;;;;;;9.30;6.82;;;4.90;73.50;;;;;;5104074;28;20086;-52
2022/12/29 00:53:46;;;;;;;9.13;7.57;;;4.80;73.50;;;;;;5110597;28;20423;-49
2022/12/29 00:56:12;;;;;;;10.60;7.32;;;4.90;73.70;;;;;;5114112;28;20055;-58
2022/12/29 00:58:38;;;;;;;9.05;7.10;;;4.80;73.50;;;;;;5108909;27;20507;-58
2022/12/29 01:01:05;;;;;;;10.05;8.30;;;4.90;73.50;;;;;;5114809;28;20062;-60
2022/12/29 01:03:30;;;;;;;8.80;7.47;;;4.90;73.70;;;;;;5112754;28;20036;-60
2022/12/29 01:05:56;;;;;;;9.45;7.93;;;5.00;73.60;;;;;;5109611;28;20045;-55
2022/12/29 01:08:22;;;;;;;10.90;8.43;;;5.00;73.50;;;;;;5106110;28;20066;-56
2022/12/29 01:11:08;;;;;;;11.65;8.88;;;5.10;73.40;;;;;;5102269;28;20024;-57
2022/12/29 01:13:34;;;;;;;10.40;8.20;;;5.10;73.00;;;;;;5114043;28;20453;-56
2022/12/29 01:16:00;;;;;;;11.45;8.55;;;5.20;73.00;;;;;;5104757;28;20031;-55
2022/12/29 01:18:27;;;;;;;13.85;9.50;;;5.20;73.00;;;;;;5102117;28;20032;-55
2022/12/29 01:21:05;;;;;;;10.90;9.15;;;5.20;72.90;;;;;;5108883;28;20665;-51
2022/12/29 01:23:31;;;;;;;15.80;10.23;;;5.20;72.60;;;;;;5106875;28;20088;-52
2022/12/29 01:26:07;;;;;;;16.85;11.23;;;5.20;72.40;;;;;;5105833;28;20060;-53
2022/12/29 01:28:33;;;;;;;16.73;10.63;;;5.20;72.30;;;;;;5102409;28;20096;-55
2022/12/29 01:31:01;;;;;;;13.48;9.95;;;5.20;72.20;;;;;;5110274;28;20035;-55
2022/12/29 01:33:26;;;;;;;14.07;9.43;;;5.20;72.10;;;;;;5110803;28;20032;-56
2022/12/29 01:35:52;;;;;;;11.57;8.88;;;5.20;72.30;;;;;;5113220;28;20342;-51
2022/12/29 01:38:17;;;;;;;10.60;7.90;;;5.10;72.30;;;;;;5116041;27;20556;-52
2022/12/29 01:40:45;;;;;;;11.77;8.52;;;5.20;72.30;;;;;;5106436;28;20059;-58
2022/12/29 01:43:13;;;;;;;10.98;7.95;;;5.20;72.70;;;;;;5105323;28;20390;-58
2022/12/29 01:45:45;;;;;;;11.18;8.40;;;5.20;72.70;;;;;;5110979;28;20350;-54
2022/12/29 01:48:13;;;;;;;10.13;7.93;;;5.20;72.60;;;;;;5112868;28;20500;-56
2022/12/29 01:50:46;;;;;;;11.13;8.23;;;5.10;72.40;;;;;;5110394;28;20453;-57
2022/12/29 01:53:20;;;;;;;8.98;7.22;;;5.10;72.40;;;;;;5103834;28;20433;-57
2022/12/29 01:55:51;;;;;;;11.00;8.13;;;5.10;72.40;;;;;;5112139;28;20039;-57
2022/12/29 01:58:21;;;;;;;10.20;7.57;;;5.10;72.50;;;;;;5109232;27;20027;-57
2022/12/29 02:00:46;;;;;;;10.98;7.65;;;5.10;72.60;;;;;;5105993;28;20165;-54
2022/12/29 02:03:12;;;;;;;11.82;8.02;;;5.10;72.60;;;;;;5112391;28;20517;-54
2022/12/29 02:05:45;;;;;;;10.15;7.97;;;5.10;72.60;;;;;;5109928;28;20393;-54
2022/12/29 02:08:11;;;;;;;11.88;8.82;;;5.00;72.50;;;;;;5106595;28;20051;-52
2022/12/29 02:10:39;;;;;;;10.10;7.97;;;5.00;72.50;;;;;;5113408;28;20062;-68
2022/12/29 02:13:04;;;;;;;10.38;7.82;;;5.00;72.60;;;;;;5112281;28;20139;-63
2022/12/29 02:16:05;;;;;;;11.75;8.45;;;4.90;72.30;;;;;;5102281;28;20051;-67
2022/12/29 02:18:50;;;;;;;12.13;8.65;;;4.90;72.50;;;;;;5112791;28;20031;-68
2022/12/29 02:21:16;;;;;;;9.57;7.95;;;4.80;72.60;;;;;;5112172;28;20677;-66
2022/12/29 02:24:19;;;;;;;12.93;8.52;;;4.80;72.70;;;;;;5112289;28;20098;-62
2022/12/29 02:27:22;;;;;;;9.57;7.72;;;4.80;72.60;;;;;;5056384;28;20485;-51
2022/12/29 02:30:05;;;;;;;10.98;8.40;;;4.80;72.70;;;;;;5107615;28;20023;-49
2022/12/29 02:32:38;;;;;;;10.55;8.32;;;4.70;72.70;;;;;;5107462;28;20084;-55
2022/12/29 02:35:12;;;;;;;10.20;8.40;;;4.80;72.90;;;;;;5107540;28;20036;-56
2022/12/29 02:38:14;;;;;;;12.88;8.95;;;4.80;73.00;;;;;;5110688;28;20045;-52
2022/12/29 02:40:56;;;;;;;12.52;8.93;;;4.80;72.90;;;;;;5112956;28;20102;-57
2022/12/29 02:43:38;;;;;;;11.75;9.10;;;4.80;73.00;;;;;;5111639;28;20031;-57
2022/12/29 02:46:27;;;;;;;10.45;8.07;;;4.70;73.00;;;;;;5118531;27;20361;-54
2022/12/29 02:49:20;;;;;;;12.77;8.18;;;4.80;73.10;;;;;;5104434;28;20446;-53
2022/12/29 02:52:03;;;;;;;9.82;8.02;;;4.80;73.00;;;;;;5110162;28;20036;-57
2022/12/29 02:54:41;;;;;;;11.13;8.23;;;4.80;73.10;;;;;;5112422;28;20024;-58
2022/12/29 02:57:11;;;;;;;10.18;8.00;;;4.70;73.10;;;;;;5110792;27;20081;-57
2022/12/29 02:59:37;;;;;;;9.68;7.57;;;4.70;73.90;;;;;;5111789;28;20118;-57
2022/12/29 03:02:17;;;;;;;11.10;8.15;;;4.70;73.30;;;;;;5110613;28;20107;-59
2022/12/29 03:04:58;;;;;;;10.23;8.20;;;4.60;73.50;;;;;;5112167;28;20028;-60
2022/12/29 03:07:35;;;;;;;11.02;8.20;;;4.70;73.50;;;;;;5105091;28;20031;-57
2022/12/29 03:10:01;;;;;;;9.95;7.78;;;4.70;73.60;;;;;;5105845;28;20043;-57
2022/12/29 03:16:02;;;;;;;11.43;8.35;;;4.80;73.40;;;;;;5076740;28;20043;-57
2022/12/29 03:18:45;;;;;;;9.90;8.50;;;4.80;73.40;;;;;;5103798;28;20032;-57
2022/12/29 03:24:18;;;;;;;11.18;8.95;;;4.90;72.90;;;;;;5109308;28;20027;-57
2022/12/29 03:26:45;;;;;;;9.38;8.20;;;5.00;72.90;;;;;;5108069;28;20461;-60
2022/12/29 03:29:13;;;;;;;10.75;8.18;;;5.00;72.70;;;;;;5106907;28;20028;-60
2022/12/29 03:31:40;;;;;;;11.95;8.60;;;5.00;72.70;;;;;;5112124;28;20036;-60
2022/12/29 03:34:07;;;;;;;11.35;9.18;;;5.00;72.60;;;;;;5106086;28;20042;-60
2022/12/29 03:36:43;;;;;;;11.65;9.20;;;5.10;72.50;;;;;;5110034;28;20024;-60
2022/12/29 03:39:12;;;;;;;11.20;9.57;;;5.10;72.20;;;;;;5104491;28;20027;-61
2022/12/29 03:41:41;;;;;;;15.85;10.23;;;5.10;72.10;;;;;;5109900;28;20115;-59
2022/12/29 03:44:08;;;;;;;14.60;10.00;;;5.00;71.90;;;;;;5106994;28;20458;-59
2022/12/29 03:46:33;;;;;;;13.15;10.90;;;5.00;71.80;;;;;;5096623;28;20036;-55
2022/12/29 03:48:59;;;;;;;15.15;11.85;;;5.00;71.70;;;;;;5105387;28;20035;-54
2022/12/29 03:51:25;;;;;;;15.18;11.43;;;4.90;71.70;;;;;;5105433;28;20036;-57
2022/12/29 03:53:50;;;;;;;15.07;11.93;;;4.90;71.80;;;;;;5105628;28;20076;-56
2022/12/29 03:56:16;;;;;;;15.85;11.95;;;4.80;71.90;;;;;;5110158;28;20031;-54
2022/12/29 03:58:42;;;;;;;12.98;10.20;;;4.80;72.10;;;;;;5105111;28;20462;-56
2022/12/29 04:01:07;;;;;;;12.35;10.65;;;4.80;72.00;;;;;;5107643;28;20164;-61
2022/12/29 04:03:33;;;;;;;12.65;9.88;;;4.80;72.10;;;;;;5109240;28;20058;-61
2022/12/29 04:05:59;;;;;;;12.23;9.93;;;4.80;72.10;;;;;;5107537;28;20084;-58
2022/12/29 04:08:25;;;;;;;11.85;9.63;;;4.80;72.20;;;;;;5100548;28;20469;-57
2022/12/29 04:10:50;;;;;;;11.18;8.88;;;4.70;72.10;;;;;;5102865;28;20032;-53
2022/12/29 04:13:16;;;;;;;14.18;8.98;;;4.70;72.00;;;;;;5103563;28;20119;-54
2022/12/29 04:15:43;;;;;;;13.73;10.10;;;4.70;71.90;;;;;;5104956;28;20035;-61
2022/12/29 04:18:09;;;;;;;14.35;9.93;;;4.70;71.90;;;;;;5108538;28;20042;-66
2022/12/29 04:23:19;;;;;;;15.32;9.60;;;4.60;71.80;;;;;;5097294;28;20069;-53
2022/12/29 04:25:48;;;;;;;10.68;8.85;;;4.50;71.80;;;;;;5104975;28;20024;-59
2022/12/29 04:28:15;;;;;;;12.15;9.25;;;4.50;72.00;;;;;;5094456;28;20122;-58
2022/12/29 04:30:40;;;;;;;12.27;9.30;;;4.40;71.90;;;;;;5101107;28;20113;-52
2022/12/29 04:33:06;;;;;;;11.20;9.18;;;4.40;72.00;;;;;;5095068;28;20115;-50
2022/12/29 04:35:32;;;;;;;12.93;8.38;;;4.40;72.00;;;;;;5098682;28;20038;-55
2022/12/29 04:37:57;;;;;;;9.00;7.55;;;4.30;72.00;;;;;;5102781;28;20036;-54
2022/12/29 04:40:23;;;;;;;11.77;7.88;;;4.40;72.10;;;;;;5104967;28;20027;-57
2022/12/29 04:42:49;;;;;;;10.82;8.38;;;4.30;72.00;;;;;;5099869;28;20385;-58
2022/12/29 04:45:15;;;;;;;9.15;7.32;;;4.30;72.10;;;;;;5109611;28;20039;-57
2022/12/29 04:47:41;;;;;;;11.23;8.05;;;4.20;72.10;;;;;;5106354;28;20038;-67
2022/12/29 04:50:07;;;;;;;10.02;7.78;;;4.20;72.10;;;;;;5100615;28;20108;-62
2022/12/29 04:52:33;;;;;;;9.25;6.95;;;4.20;72.10;;;;;;5099361;28;20028;-58
2022/12/29 04:54:59;;;;;;;12.55;8.43;;;4.20;72.20;;;;;;5103243;28;20028;-59
2022/12/29 04:57:24;;;;;;;8.10;6.82;;;4.20;72.20;;;;;;5107106;28;20038;-60
2022/12/29 04:59:50;;;;;;;9.93;8.02;;;4.10;72.20;;;;;;5096025;28;20043;-61
2022/12/29 05:02:16;;;;;;;8.23;6.85;;;4.10;72.20;;;;;;5101944;28;20061;-57
2022/12/29 05:04:42;;;;;;;7.18;6.38;;;4.10;72.20;;;;;;5092329;28;20032;-59
2022/12/29 05:07:08;;;;;;;12.10;7.13;;;4.10;72.30;;;;;;5097407;28;20412;-54
2022/12/29 05:09:34;;;;;;;9.25;7.28;;;4.00;72.20;;;;;;5102212;28;20047;-54
2022/12/29 05:11:59;;;;;;;9.02;6.93;;;4.00;72.10;;;;;;5099772;28;22528;-51
2022/12/29 05:14:25;;;;;;;8.70;6.55;;;4.00;72.20;;;;;;5100764;28;20035;-53
2022/12/29 05:16:51;;;;;;;8.85;6.47;;;4.00;72.30;;;;;;5107383;28;20085;-58
2022/12/29 05:19:16;;;;;;;7.65;6.75;;;4.00;72.30;;;;;;5099096;28;20123;-57
2022/12/29 05:21:43;;;;;;;9.02;6.90;;;4.00;72.40;;;;;;5110220;28;20144;-53
2022/12/29 05:24:09;;;;;;;9.75;6.63;;;4.00;72.40;;;;;;5106025;28;20036;-52
2022/12/29 05:26:34;;;;;;;9.55;6.97;;;4.00;72.40;;;;;;5107756;28;20046;-57
2022/12/29 05:29:00;;;;;;;10.23;6.97;;;4.00;72.30;;;;;;5103523;28;20042;-56
2022/12/29 05:31:27;;;;;;;7.55;6.57;;;4.00;72.20;;;;;;5102751;27;20044;-55
2022/12/29 05:33:53;;;;;;;11.50;7.43;;;4.00;72.10;;;;;;5105276;28;20020;-51
2022/12/29 05:36:18;;;;;;;8.90;7.25;;;4.00;72.00;;;;;;5098028;28;20122;-54
2022/12/29 05:38:44;;;;;;;10.00;6.50;;;4.00;71.80;;;;;;5102767;28;20040;-56
2022/12/29 05:41:10;;;;;;;9.40;7.00;;;4.00;71.80;;;;;;5103389;28;20028;-56
2022/12/29 05:43:36;;;;;;;9.20;7.15;;;4.00;71.70;;;;;;5109907;28;20561;-56
2022/12/29 05:46:03;;;;;;;9.75;7.32;;;4.00;71.70;;;;;;5103453;27;20102;-55
2022/12/29 05:48:28;;;;;;;10.27;6.63;;;4.00;71.80;;;;;;5101226;28;20032;-55
2022/12/29 05:50:54;;;;;;;7.47;6.30;;;4.00;71.70;;;;;;5101044;28;20196;-57
2022/12/29 05:53:20;;;;;;;9.88;7.00;;;4.00;71.90;;;;;;5106225;28;20111;-57
2022/12/29 05:55:49;;;;;;;10.15;6.93;;;4.00;71.80;;;;;;5101373;28;20031;-58
2022/12/29 05:58:16;;;;;;;8.57;6.72;;;4.00;71.80;;;;;;5091564;28;20585;-53
2022/12/29 06:00:42;;;;;;;10.38;7.20;;;4.00;72.00;;;;;;5098117;28;20504;-56
2022/12/29 06:03:07;;;;;;;7.15;6.40;;;4.00;72.00;;;;;;5099542;28;20028;-57
2022/12/29 06:05:33;;;;;;;8.15;6.40;;;4.00;71.90;;;;;;5100805;28;20090;-56
2022/12/29 06:07:59;;;;;;;8.68;7.15;;;4.00;72.00;;;;;;5088228;28;20031;-56
2022/12/29 06:10:25;;;;;;;10.52;7.53;;;4.00;72.00;;;;;;5102410;28;20036;-54
2022/12/29 06:12:51;;;;;;;9.57;7.30;;;4.00;71.90;;;;;;5096490;28;20132;-53
2022/12/29 06:15:17;;;;;;;10.93;7.85;;;4.00;71.90;;;;;;5092580;28;20024;-58
2022/12/29 06:17:42;;;;;;;10.45;7.53;;;4.10;72.00;;;;;;5093202;28;20124;-55
2022/12/29 06:20:09;;;;;;;9.48;7.45;;;4.10;71.90;;;;;;5100474;28;20517;-58
2022/12/29 06:22:35;;;;;;;9.88;7.20;;;4.20;71.90;;;;;;5096121;28;20147;-57
2022/12/29 06:25:01;;;;;;;9.35;6.82;;;4.20;71.70;;;;;;5094879;28;20028;-54
2022/12/29 06:27:27;;;;;;;8.88;6.78;;;4.20;71.70;;;;;;5099427;28;20035;-54
2022/12/29 06:29:53;;;;;;;9.60;7.22;;;4.30;71.80;;;;;;5092063;28;20036;-56
2022/12/29 06:32:19;;;;;;;11.57;7.75;;;4.40;71.70;;;;;;5093346;28;20104;-57
2022/12/29 06:34:44;;;;;;;9.70;7.07;;;4.40;71.40;;;;;;5093334;28;20118;-54
2022/12/29 06:37:11;;;;;;;11.13;6.85;;;4.50;71.20;;;;;;5091445;28;20496;-56
2022/12/29 06:39:36;;;;;;;7.65;6.47;;;4.50;71.10;;;;;;5097885;28;20050;-57
2022/12/29 06:42:02;;;;;;;8.63;6.45;;;4.50;71.10;;;;;;5096112;28;20036;-57
2022/12/29 06:44:28;;;;;;;8.98;6.65;;;4.60;71.00;;;;;;5093775;28;20028;-57
2022/12/29 06:46:54;;;;;;;9.18;7.13;;;4.70;70.80;;;;;;5086187;28;20028;-63
2022/12/29 06:49:19;;;;;;;9.30;6.00;;;4.70;70.50;;;;;;5096566;28;20035;-61
2022/12/29 06:51:45;;;;;;;9.32;6.95;;;4.70;70.40;;;;;;5099785;28;20043;-66
2022/12/29 06:54:11;;;;;;;8.18;6.25;;;4.70;70.20;;;;;;5098339;28;20032;-68
2022/12/29 06:56:36;;;;;;;10.25;6.20;;;4.70;70.20;;;;;;5097076;28;20031;-64
2022/12/29 06:59:03;;;;;;;8.20;6.45;;;4.70;70.00;;;;;;5095111;28;20084;-62
2022/12/29 07:01:29;;;;;;;9.00;6.70;;;4.70;69.90;;;;;;5087074;28;20036;-61
2022/12/29 07:03:54;;;;;;;7.18;5.60;;;4.70;70.00;;;;;;5090847;28;20054;-64
2022/12/29 07:06:21;;;;;;;9.07;6.82;;;4.70;70.20;;;;;;5097082;28;20497;-63
2022/12/29 07:08:46;;;;;;;8.35;6.35;;;4.70;70.10;;;;;;5091587;28;20043;-63
2022/12/29 07:11:12;;;;;;;8.20;6.20;;;4.60;70.10;;;;;;5086911;28;20040;-67
2022/12/29 07:13:38;;;;;;;9.48;6.38;;;4.60;70.00;;;;;;5065218;28;20024;-58
2022/12/29 07:16:08;;;;;;;9.23;6.70;;;4.60;70.10;;;;;;5091834;28;20028;-60
2022/12/29 07:18:34;;;;;;;8.95;6.30;;;4.60;70.00;;;;;;5091701;28;20062;-63
2022/12/29 07:21:00;;;;;;;8.23;6.88;;;4.60;70.00;;;;;;5086170;28;20038;-58
2022/12/29 07:23:26;;;;;;;10.77;6.95;;;4.60;70.10;;;;;;5093507;28;20366;-66
2022/12/29 07:26:06;;;;;;;9.23;6.80;;;4.50;70.20;;;;;;5088510;28;20028;-67
2022/12/29 07:28:33;;;;;;;9.05;6.95;;;4.60;70.20;;;;;;5075758;28;20044;-61
2022/12/29 07:30:59;;;;;;;10.13;7.40;;;4.50;70.20;;;;;;5087851;28;20059;-62
2022/12/29 07:33:25;;;;;;;8.57;6.90;;;4.50;70.40;;;;;;5079855;27;20115;-64
2022/12/29 07:35:51;;;;;;;12.00;7.93;;;4.60;70.50;;;;;;5079867;28;21076;-59
2022/12/29 07:38:16;;;;;;;10.38;7.78;;;4.60;70.50;;;;;;5083736;28;20085;-60
2022/12/29 07:40:42;;;;;;;11.05;8.15;;;4.60;70.50;;;;;;5072993;28;20683;-60
2022/12/29 07:43:08;;;;;;;9.77;7.28;;;4.60;70.20;;;;;;5083321;28;20051;-56
2022/12/29 07:45:34;;;;;;;9.88;7.47;;;4.60;70.20;;;;;;5077674;28;20032;-62
2022/12/29 07:47:59;;;;;;;9.57;6.78;;;4.70;70.20;;;;;;5076228;28;20028;-54
2022/12/29 07:50:25;;;;;;;9.80;7.30;;;4.70;70.20;;;;;;5073681;28;20048;-64
2022/12/29 07:52:51;;;;;;;10.90;6.93;;;4.80;70.10;;;;;;5078392;28;20055;-57
2022/12/29 07:55:16;;;;;;;9.73;7.03;;;4.80;70.10;;;;;;5073937;28;20031;-57
2022/12/29 07:57:42;;;;;;;8.85;6.60;;;4.80;70.10;;;;;;5072374;28;20028;-57
2022/12/29 08:00:09;;;;;;;9.65;6.93;;;4.80;70.00;;;;;;5079895;28;20073;-59
2022/12/29 08:02:35;;;;;;;11.73;7.15;;;4.80;70.00;;;;;;5076384;28;20027;-60
2022/12/29 08:05:01;;;;;;;11.32;7.28;;;4.90;70.10;;;;;;5079342;28;20091;-62
2022/12/29 08:07:27;;;;;;;9.45;7.35;;;4.90;69.90;;;;;;5079817;28;23097;-56
2022/12/29 08:09:52;;;;;;;9.68;7.10;;;4.90;69.80;;;;;;5080465;28;20103;-61
2022/12/29 08:12:18;;;;;;;11.20;6.88;;;4.90;69.80;;;;;;5067474;28;20472;-57
2022/12/29 08:14:44;;;;;;;7.53;6.03;;;4.90;69.80;;;;;;5075248;28;20027;-57
2022/12/29 08:17:10;;;;;;;9.20;6.90;;;5.00;69.70;;;;;;5073428;28;20054;-61
2022/12/29 08:19:36;;;;;;;13.60;8.93;;;5.00;69.80;;;;;;5073940;28;20044;-57
2022/12/29 08:22:02;;;;;;;10.63;7.95;;;5.00;69.80;;;;;;5076249;28;20027;-59
2022/12/29 08:24:27;;;;;;;12.75;8.25;;;5.10;69.90;;;;;;5077871;28;20028;-58
2022/12/29 08:26:53;;;;;;;9.18;7.25;;;5.10;69.70;;;;;;5080927;28;20063;-54
2022/12/29 08:29:19;;;;;;;8.18;6.82;;;5.20;69.50;;;;;;5069393;28;20066;-57
2022/12/29 08:31:45;;;;;;;8.95;6.88;;;5.30;69.60;;;;;;5077244;28;20071;-61
2022/12/29 08:34:10;;;;;;;9.73;7.18;;;5.30;69.30;;;;;;5079355;28;20044;-66
2022/12/29 08:36:36;;;;;;;9.40;6.88;;;5.40;69.10;;;;;;5075379;28;20154;-63
2022/12/29 08:39:02;;;;;;;9.75;6.88;;;5.40;69.00;;;;;;5063437;28;20458;-61
2022/12/29 08:41:28;;;;;;;8.57;7.20;;;5.40;68.80;;;;;;5068011;28;20599;-58
2022/12/29 08:43:53;;;;;;;8.73;6.07;;;5.40;68.50;;;;;;5070905;28;20047;-56
2022/12/29 08:46:19;;;;;;;10.25;6.95;;;5.40;68.30;;;;;;5065174;28;20188;-60
2022/12/29 08:48:45;;;;;;;8.25;6.50;;;5.40;68.20;;;;;;5067039;28;20039;-58
2022/12/29 08:51:11;;;;;;;10.30;6.10;;;5.40;68.10;;;;;;5063837;28;20040;-62
2022/12/29 08:53:36;;;;;;;8.77;6.55;;;5.30;68.20;;;;;;5073517;28;20032;-61
2022/12/29 08:56:03;;;;;;;8.77;6.47;;;5.30;68.40;;;;;;5063496;28;20036;-64
2022/12/29 08:58:29;;;;;;;8.30;6.28;;;5.30;68.50;;;;;;5070266;28;20034;-61
2022/12/29 09:00:56;;;;;;;7.43;5.78;;;5.40;68.60;;;;;;5072488;28;20020;-58
2022/12/29 09:03:23;;;;;;;6.63;5.43;;;5.40;68.60;;;;;;5058412;28;20035;-63
2022/12/29 09:05:50;;;;;;;8.77;6.40;;;5.50;68.70;;;;;;5064306;28;21467;-62
2022/12/29 09:08:16;;;;;;;10.73;6.18;;;5.50;68.60;;;;;;5066182;27;20154;-58
2022/12/29 09:10:43;;;;;;;7.72;5.68;;;5.60;68.70;;;;;;5075127;28;20062;-63
2022/12/29 09:13:09;;;;;;;9.07;6.70;;;5.70;68.60;;;;;;5076904;28;21267;-60
2022/12/29 09:15:34;;;;;;;9.05;6.13;;;5.70;68.50;;;;;;5068700;28;20084;-62
2022/12/29 09:18:00;;;;;;;9.48;6.47;;;5.80;68.40;;;;;;5074494;28;20850;-56
2022/12/29 09:20:26;;;;;;;8.40;5.53;;;5.80;68.40;;;;;;5076870;27;20143;-59
2022/12/29 09:22:51;;;;;;;6.88;5.60;;;5.90;68.50;;;;;;5071286;27;20036;-66
2022/12/29 09:25:18;;;;;;;6.95;5.25;;;6.00;68.40;;;;;;5074169;28;20775;-67
2022/12/29 09:27:43;;;;;;;7.25;5.50;;;6.00;68.30;;;;;;5076102;28;20051;-62
2022/12/29 09:30:11;;;;;;;7.28;5.60;;;6.10;68.10;;;;;;5076859;28;20032;-63
2022/12/29 09:32:37;;;;;;;6.70;5.70;;;6.10;67.70;;;;;;5074528;28;20039;-57
2022/12/29 09:35:03;;;;;;;8.23;5.68;;;6.10;67.60;;;;;;5076938;28;20940;-58
2022/12/29 09:37:28;;;;;;;7.50;5.80;;;6.10;67.90;;;;;;5075467;28;20028;-59
2022/12/29 09:39:54;;;;;;;7.38;5.75;;;6.10;67.80;;;;;;5069635;28;20158;-63
2022/12/29 09:42:39;;;;;;;7.43;5.90;;;6.20;67.90;;;;;;5058333;28;20119;-58
2022/12/29 09:45:31;;;;;;;7.45;5.30;;;6.30;67.90;;;;;;5072275;28;20078;-59
2022/12/29 09:47:57;;;;;;;10.00;6.85;;;6.30;67.80;;;;;;5063427;28;20055;-56
2022/12/29 09:50:32;;;;;;;8.68;5.97;;;6.40;67.50;;;;;;5065165;28;20032;-59
2022/12/29 09:53:17;;;;;;;7.22;5.90;;;6.40;67.10;;;;;;5062271;28;20042;-53
2022/12/29 09:55:50;;;;;;;7.45;5.80;;;6.50;67.00;;;;;;5075363;28;20096;-62
2022/12/29 09:58:37;;;;;;;8.32;6.00;;;6.50;66.70;;;;;;5075398;28;21312;-60
2022/12/29 10:04:28;;;;;;;7.15;5.68;;;6.50;66.10;;;;;;4998662;27;20604;-60
2022/12/29 10:07:13;;;;;;;7.05;4.80;;;6.60;66.50;;;;;;4983728;28;20048;-58
2022/12/29 10:10:11;;;;;;;7.18;4.80;;;6.60;66.40;;;;;;4975238;28;20029;-55
2022/12/29 10:13:01;;;;;;;8.00;5.00;;;6.60;66.60;;;;;;4978732;28;20038;-68
2022/12/29 10:15:42;;;;;;;9.35;6.30;;;6.60;66.60;;;;;;4985506;28;20057;-58
2022/12/29 10:18:26;;;;;;;7.87;4.97;;;6.70;66.60;;;;;;4977226;28;20960;-60
2022/12/29 10:21:36;;;;;;;10.35;7.00;;;6.70;66.60;;;;;;4964986;28;20310;-61
2022/12/29 10:24:06;;;;;;;7.93;5.75;;;6.80;66.50;;;;;;4971936;28;20092;-57
2022/12/29 10:26:38;;;;;;;9.30;6.57;;;6.80;66.60;;;;;;4983197;28;20048;-58
2022/12/29 10:29:18;;;;;;;7.40;5.80;;;6.80;66.60;;;;;;4992616;28;20044;-56
2022/12/29 10:31:49;;;;;;;8.07;5.88;;;6.90;66.60;;;;;;4983705;28;20022;-59
2022/12/29 10:34:22;;;;;;;11.43;6.43;;;6.90;66.60;;;;;;4974390;28;20071;-59
2022/12/29 10:36:52;;;;;;;7.88;6.13;;;6.90;66.40;;;;;;4972179;28;20100;-57
2022/12/29 10:39:32;;;;;;;9.40;6.30;;;7.00;66.00;;;;;;4983340;28;20056;-60
2022/12/29 10:42:36;;;;;;;8.15;5.65;;;7.00;66.10;;;;;;4958546;28;21927;-56
2022/12/29 10:45:04;;;;;;;8.65;5.70;;;6.90;66.10;;;;;;4986171;28;20128;-62
2022/12/29 10:47:35;;;;;;;7.68;5.55;;;6.90;66.20;;;;;;4971694;28;20033;-58
2022/12/29 10:50:02;;;;;;;;;;;7.00;65.90;;;;;;4971809;28;20132;-56
2022/12/29 10:52:29;;;;;;;7.40;5.90;;;6.90;66.20;;;;;;4981125;28;20031;-58
2022/12/29 10:55:15;;;;;;;7.25;5.50;;;6.80;65.90;;;;;;4978776;28;20033;-64
2022/12/29 10:57:44;;;;;;;8.80;5.82;;;6.90;66.00;;;;;;5014084;28;20078;-61
2022/12/29 11:00:16;;;;;;;7.38;5.60;;;6.80;65.90;;;;;;4985687;28;20025;-59
2022/12/29 11:02:57;;;;;;;7.85;5.85;;;6.80;65.90;;;;;;4974116;28;20156;-57
2022/12/29 11:05:54;;;;;;;7.47;5.68;;;6.80;65.90;;;;;;4962257;28;20088;-57
2022/12/29 11:08:24;;;;;;;8.30;5.72;;;6.70;65.80;;;;;;4966677;28;20112;-59
2022/12/29 11:11:04;;;;;;;7.57;5.47;;;6.70;66.10;;;;;;4966123;28;20033;-60
2022/12/29 11:13:32;;;;;;;7.80;6.03;;;6.70;66.00;;;;;;4971776;28;20045;-61
2022/12/29 11:16:00;;;;;;;9.68;6.10;;;6.70;66.00;;;;;;4955046;28;20144;-60
2022/12/29 11:18:31;;;;;;;7.03;5.75;;;6.70;66.00;;;;;;4952933;28;20132;-60
2022/12/29 11:21:00;;;;;;;13.63;11.25;;;6.70;66.00;;;;;;4944447;28;20040;-57
2022/12/29 11:23:41;;;;;;;10.73;7.45;;;6.60;66.20;;;;;;4952842;28;20484;-64
2022/12/29 11:26:21;;;;;;;9.70;6.55;;;6.60;66.40;;;;;;4947062;28;20047;-57
2022/12/29 11:29:05;;;;;;;9.60;6.80;;;6.60;66.40;;;;;;4961021;28;20042;-69
2022/12/29 11:31:30;;;;;;;8.77;6.78;;;6.70;66.40;;;;;;4969736;28;20555;-63
2022/12/29 11:33:56;;;;;;;8.35;6.43;;;6.70;66.40;;;;;;4966346;28;20038;-62
2022/12/29 11:36:24;;;;;;;8.77;6.38;;;6.70;66.40;;;;;;4951517;28;20041;-55
2022/12/29 11:38:52;;;;;;;7.70;6.20;;;6.70;66.50;;;;;;4959904;28;20062;-56
2022/12/29 11:41:26;;;;;;;10.18;6.78;;;6.80;66.50;;;;;;4964038;28;20042;-58
2022/12/29 11:43:55;;;;;;;8.15;6.13;;;6.80;66.40;;;;;;4974980;28;20162;-64
2022/12/29 11:46:34;;;;;;;9.30;6.45;;;6.90;66.30;;;;;;4970476;28;20034;-60
2022/12/29 11:49:01;;;;;;;8.45;5.97;;;6.90;66.20;;;;;;4965130;28;20032;-58
2022/12/29 11:51:30;;;;;;;8.98;6.28;;;6.90;66.20;;;;;;4976167;28;20041;-57
2022/12/29 11:54:02;;;;;;;8.60;5.75;;;7.00;66.10;;;;;;4963415;28;20064;-63
2022/12/29 11:56:35;;;;;;;8.88;5.95;;;6.90;66.20;;;;;;4973176;28;20982;-59
2022/12/29 11:59:38;;;;;;;7.78;6.22;;;6.90;66.10;;;;;;4978748;28;20403;-60
2022/12/29 12:02:15;;;;;;;7.32;5.68;;;6.90;66.10;;;;;;4977092;28;20038;-59
2022/12/29 12:04:41;;;;;;;8.88;6.13;;;7.00;66.10;;;;;;4980526;28;20046;-65
2022/12/29 12:07:07;;;;;;;9.15;6.88;;;6.90;66.20;;;;;;4967997;28;22887;-62
2022/12/29 12:09:37;;;;;;;7.93;6.00;;;6.90;66.20;;;;;;4979071;28;20041;-61
2022/12/29 12:12:05;;;;;;;7.93;6.28;;;7.00;66.20;;;;;;4979861;28;20038;-61
2022/12/29 12:14:52;;;;;;;11.77;7.03;;;6.90;66.20;;;;;;4971534;28;20029;-60
2022/12/29 12:17:29;;;;;;;9.05;7.00;;;6.90;66.30;;;;;;4976725;28;20048;-61
2022/12/29 12:20:04;;;;;;;9.45;6.60;;;6.90;66.30;;;;;;4978456;28;20037;-59
2022/12/29 12:23:02;;;;;;;8.85;7.43;;;6.90;66.30;;;;;;4971902;28;20034;-60
2022/12/29 12:25:43;;;;;;;10.05;7.07;;;6.90;66.30;;;;;;4966997;28;20141;-58
2022/12/29 12:28:16;;;;;;;10.15;8.13;;;6.90;66.40;;;;;;4966809;28;20072;-59
2022/12/29 12:30:47;;;;;;;10.00;7.18;;;6.90;66.40;;;;;;4979948;28;20029;-58
2022/12/29 12:33:41;;;;;;;9.65;7.63;;;6.90;66.60;;;;;;4980062;28;20073;-59
2022/12/29 12:36:35;;;;;;;10.25;7.32;;;6.90;66.60;;;;;;4959152;28;20130;-63
2022/12/29 12:39:17;;;;;;;9.32;7.00;;;6.90;66.60;;;;;;4975378;28;20073;-62
2022/12/29 12:42:01;;;;;;;10.20;6.65;;;6.90;66.70;;;;;;4970644;28;20038;-58
2022/12/29 12:44:40;;;;;;;8.75;7.13;;;6.90;66.60;;;;;;4974260;28;20141;-62
2022/12/29 12:47:26;;;;;;;11.20;8.00;;;6.90;66.60;;;;;;4967458;28;20049;-58
2022/12/29 12:50:14;;;;;;;12.38;8.10;;;6.90;66.60;;;;;;4964893;28;20033;-58
2022/12/29 12:53:01;;;;;;;9.02;6.80;;;6.80;66.60;;;;;;4971064;28;20033;-59
2022/12/29 12:55:51;;;;;;;10.68;6.25;;;6.80;66.80;;;;;;4984349;28;21004;-60
2022/12/29 12:58:47;;;;;;;7.78;6.10;;;6.80;66.80;;;;;;4970106;28;20038;-64
2022/12/29 13:01:31;;;;;;;7.10;5.97;;;6.80;66.90;;;;;;4978210;28;20448;-58
2022/12/29 13:04:04;;;;;;;9.23;6.38;;;6.80;67.00;;;;;;4975209;28;20053;-61
2022/12/29 13:06:49;;;;;;;10.88;6.20;;;6.80;67.00;;;;;;4978062;28;20044;-55
2022/12/29 13:09:36;;;;;;;8.95;7.82;;;6.80;67.10;;;;;;4971565;28;20048;-66
2022/12/29 13:12:15;;;;;;;9.52;7.40;;;6.80;67.10;;;;;;4967752;28;20034;-59
2022/12/29 13:14:56;;;;;;;10.32;7.10;;;6.80;67.30;;;;;;4970487;28;20062;-59
2022/12/29 13:17:25;;;;;;;8.65;6.60;;;6.70;67.30;;;;;;4968481;28;20548;-59
2022/12/29 13:20:05;;;;;;;10.23;6.70;;;6.70;67.40;;;;;;4973923;28;20121;-60
2022/12/29 13:22:40;;;;;;;8.43;6.25;;;6.70;67.40;;;;;;4987762;28;20591;-63
2022/12/29 13:25:24;;;;;;;11.02;6.00;;;6.70;67.50;;;;;;4978694;28;20045;-57
2022/12/29 13:28:15;;;;;;;7.82;5.70;;;6.60;68.20;;;;;;4973654;28;20078;-68
2022/12/29 13:31:03;;;;;;;7.20;5.63;;;6.60;67.80;;;;;;4977630;28;20883;-65
2022/12/29 13:33:41;;;;;;;9.32;5.97;;;6.60;67.90;;;;;;4978916;28;20049;-60
2022/12/29 13:36:47;;;;;;;9.70;5.93;;;6.50;67.90;;;;;;4973925;28;20531;-60
2022/12/29 13:39:26;;;;;;;8.18;5.93;;;6.50;68.00;;;;;;4985260;28;20046;-60
2022/12/29 13:41:54;;;;;;;8.80;6.57;;;6.40;68.20;;;;;;4981933;28;20064;-59
2022/12/29 13:44:45;;;;;;;14.85;9.65;;;6.40;68.40;;;;;;4983398;28;22820;-64
2022/12/29 13:47:36;;;;;;;8.50;6.78;;;6.40;68.50;;;;;;4976225;28;20030;-58
2022/12/29 13:50:06;;;;;;;9.07;7.15;;;6.40;68.60;;;;;;4970820;28;20030;-67
2022/12/29 13:52:43;;;;;;;9.77;6.57;;;6.40;68.70;;;;;;4963568;28;21799;-58
2022/12/29 13:55:29;;;;;;;7.43;5.70;;;6.40;68.60;;;;;;4971089;28;21022;-62